AirNav  
 
 334 users online  

3VA1 The Meadows Airport
Warrenton, Virginia, USA

GOING TO WARRENTON?


FAA INFORMATION EFFECTIVE 29 MARCH 2018

Location

FAA Identifier: 3VA1
Lat/Long: 38-46-27.4180N / 077-47-58.9760W
38-46.456967N / 077-47.982933W
38.7742828 / -77.7997156
(estimated)
Elevation: 584 ft. / 178.0 m (surveyed)
Variation: 09W (1985)
From city: 3 miles N of WARRENTON, VA
Time zone: UTC -4 (UTC -5 during Standard Time)
Zip code: 20187

Airport Operations

Airport use: Private use. Permission required prior to landing
Activation date: 10/1974
Control tower: no
ARTCC: WASHINGTON CENTER
FSS: LEESBURG FLIGHT SERVICE STATION
Attendance: UNATNDD
Wind indicator: yes
Segmented circle: no

Airport Communications

WX AWOS-3 at HWY (12 nm S): 120.350 (540-788-4078)
WX AWOS-3PT at HEF (14 nm E): PHONE 703-361-6160
WX AWOS-3 at CJR (15 nm S): 119.325 (540-727-0523)
WX ASOS at IAD (19 nm NE): PHONE 703-661-2990

Nearby radio navigation aids

VOR radial/distance  VOR name  Freq  Var
CSNr027/8.6CASANOVA VORTAC116.3006W
AMLr246/18.3ARMEL VOR/DME113.5008W
LDNr110/19.6LINDEN VORTAC114.3006W
BRVr330/33.6BROOKE VORTAC114.5009W
DCAr271/36.0WASHINGTON VOR/DME111.0009W
MRBr183/36.7MARTINSBURG VORTAC112.1007W

 
NDB name  Hdg/Dist  Freq  Var  ID
GOODWIN LAKE180/10.922708WGDX --. -.. -..-
NAILR024/19.835110WMSQ -- ... --.-
CAVERNS091/31.824509WLUA .-.. ..- .-
GEORGETOWN263/32.932309WGTN --. - -.
DAVEE291/33.022309WDAA -.. .- .-
SHANNON342/34.623710WEZF . --.. ..-.
OXONN282/36.133211WDCA -.. -.-. .-

Airport Services

Airframe service: MAJOR
Powerplant service: MAJOR

Runway Information

Runway 6/24

Dimensions: 2100 x 125 ft. / 640 x 38 m
Surface: turf
RUNWAY 6  RUNWAY 24
Traffic pattern: leftleft

Airport Ownership and Management from official FAA records

Ownership: Privately-owned
Owner: K. W. HYDE
RFD 5 BOX 294
WARRENTON, VA 22186
Phone 703-347-1909
Manager: K. W. HYDE
RFD 5 BOX 294
WARRENTON, VA 22186
Phone 540-347-1909

Airport Operational Statistics

Aircraft based on the field: 4
Single engine airplanes: 4
    

Additional Remarks

AVOID FLYING OVER HOUSES ON APCH OR TAKEOFF.

Instrument Procedures

There are no published instrument procedures at 3VA1.

Some nearby airports with instrument procedures:

KHWY - Warrenton-Fauquier Airport (12 nm S)
2VG2 - Upperville Airport (12 nm N)
KHEF - Manassas Regional Airport/Harry P. Davis Field (14 nm E)
KCJR - Culpeper Regional Airport (15 nm S)
KIAD - Washington Dulles International Airport (19 nm NE)
 
Loc | Ops | Rwys | IFR | FBO | Links
Com | Nav | Svcs | Stats | Notes

AirNav Hotels Sweepstakes
 
Area around 3VA1 (The Meadows Airport)
 
Road maps at: MapQuest Bing Google
 
Aerial photo
No photo
 
Sectional chart

 
Airport distance calculator
Flying to The Meadows Airport? Find the distance to fly.

From to 3VA1

Sunrise and sunset
Times for 24-Apr-2018
 Local
(UTC-4)
 Zulu
(UTC)
Morning civil twilight05:5509:55
Sunrise06:2310:23
Sunset19:5523:55
Evening civil twilight20:2400:24

Current date and time
Zulu (UTC)  24-Apr-2018 07:01:57
Local (UTC-4)  24-Apr-2018 03:01:57
 
METAR
KHWY 
12nm S 
240655Z AUTO 11006KT 10SM SCT047 OVC110 13/04 A3030 RMK AO2 T01270040
KHEF 
14nm E 
240656Z AUTO 12006KT 10SM OVC120 12/03 A3031 RMK AO2 SLP275 T01220033 PNO $
KIAD 
19nm NE 
240652Z 12006KT 10SM BKN130 OVC200 12/03 A3031 RMK AO2 SLP262 T01220028 $
KJYO 
21nm NE 
240655Z AUTO 12003KT 10SM CLR 13/03 A3031 RMK AO2
KCJR 
22nm SW 
240655Z AUTO 11004KT 10SM BKN046 OVC110 13/04 A3030 RMK AO2 T01270035
KFRR 
23nm W 
240655Z AUTO 13003KT 10SM OVC100 12/01 A3028 RMK AO1
TAF
KIAD 
19nm NE 
240540Z 2406/2512 13007KT P6SM OVC090 FM241200 11007KT P6SM VCSH OVC050 FM241400 09008G16KT 5SM -RA BKN025 OVC050 FM241800 09011G19KT 3SM RA SCT008 BKN015 OVC050 FM250200 07008KT 3SM -RA BR BKN008 OVC015 FM250800 VRB04KT 3SM -RA BR BKN008 OVC015
NOTAMs
Click for the latest NOTAMs
NOTAMs are issued by the DoD/FAA and will open in a separate window not controlled by AirNav.

 

 
 

Would you like to see your business listed on this page?

 If your business provides an interesting product or service to pilots, flight crews, aircraft, or users of the The Meadows Airport, you should consider listing it here.  To start the listing process, click on the button below
 
Add a business
 

Other Pages about The Meadows Airport

Update a link
 
Copyright © AirNav, LLC. All rights reserved. Privacy Policy  Contact